Time;durP1;ratioP1;P1;durP2;ratioP2;P2;SDS_P1;SDS_P2;PMS_P1;PMS_P2;Temp;Humidity;BMP_temperature;BMP_pressure;BME280_temperature;BME280_humidity;BME280_pressure;Samples;Min_cycle;Max_cycle;Signal;HPM_P1;HPM_P2
2023/10/25 04:01:14;;;;;;;31.60;14.25;;;8.70;99.90;;;;;;5626126;23;20221;-73
2023/10/25 04:03:41;;;;;;;27.77;13.00;;;8.60;99.90;;;;;;4970928;28;20203;-73
2023/10/25 04:06:08;;;;;;;45.70;13.77;;;8.60;99.90;;;;;;4979771;28;20217;-73
2023/10/25 04:08:35;;;;;;;33.25;14.38;;;8.60;99.90;;;;;;4970986;28;20205;-73
2023/10/25 04:11:02;;;;;;;39.65;15.45;;;8.60;99.90;;;;;;4954775;28;20233;-73
2023/10/25 04:13:29;;;;;;;31.75;14.23;;;8.60;99.90;;;;;;4952413;29;20210;-72
2023/10/25 04:16:00;;;;;;;27.13;13.40;;;8.60;99.90;;;;;;4951103;29;20210;-73
2023/10/25 04:18:29;;;;;;;33.33;15.00;;;8.60;99.90;;;;;;4949301;29;20305;-73
2023/10/25 04:20:56;;;;;;;27.77;13.85;;;8.50;99.90;;;;;;4949391;28;20309;-73
2023/10/25 04:23:23;;;;;;;29.00;12.60;;;8.60;99.90;;;;;;4949703;28;20201;-73
2023/10/25 04:25:50;;;;;;;30.85;14.68;;;8.50;99.90;;;;;;4947662;28;20288;-73
2023/10/25 04:28:18;;;;;;;30.50;13.18;;;8.50;99.90;;;;;;4949074;29;20310;-73
2023/10/25 04:30:45;;;;;;;30.58;12.95;;;8.50;99.90;;;;;;4947988;29;20225;-73
2023/10/25 04:33:12;;;;;;;26.42;13.25;;;8.50;99.90;;;;;;4947233;28;20220;-73
2023/10/25 04:35:41;;;;;;;35.55;12.70;;;8.40;99.90;;;;;;4952002;28;20240;-71
2023/10/25 04:38:08;;;;;;;24.67;13.45;;;8.50;99.90;;;;;;4947939;28;20241;-73
2023/10/25 04:40:34;;;;;;;30.98;13.68;;;8.40;99.90;;;;;;4950360;29;20229;-72
2023/10/25 04:43:01;;;;;;;23.08;13.30;;;8.40;99.90;;;;;;4951330;29;20221;-73
2023/10/25 04:45:29;;;;;;;24.58;12.55;;;8.40;99.90;;;;;;4947559;29;20651;-73
2023/10/25 04:47:56;;;;;;;29.02;14.02;;;8.40;99.90;;;;;;4948456;29;20552;-73
2023/10/25 04:50:24;;;;;;;28.58;12.95;;;8.30;99.90;;;;;;4948379;29;20213;-73
2023/10/25 04:52:52;;;;;;;24.48;12.45;;;8.30;99.90;;;;;;4947422;29;20213;-73
2023/10/25 04:55:21;;;;;;;25.20;13.05;;;8.30;99.90;;;;;;4949571;28;20209;-73
2023/10/25 04:57:47;;;;;;;24.63;11.75;;;8.30;99.90;;;;;;4948226;29;20212;-72
2023/10/25 05:00:15;;;;;;;25.50;14.88;;;8.20;99.90;;;;;;4947021;29;20237;-73
2023/10/25 05:02:41;;;;;;;26.13;12.10;;;8.20;99.90;;;;;;4950738;28;20205;-76
2023/10/25 05:05:09;;;;;;;25.00;11.98;;;8.20;99.90;;;;;;4949061;29;20213;-72
2023/10/25 05:07:37;;;;;;;22.27;12.35;;;8.20;99.90;;;;;;4951079;28;20209;-73
2023/10/25 05:10:08;;;;;;;27.65;12.65;;;8.20;99.90;;;;;;4947584;28;20214;-73
2023/10/25 05:12:38;;;;;;;25.92;12.18;;;8.20;99.90;;;;;;4947907;29;20231;-73
2023/10/25 05:15:06;;;;;;;27.38;12.50;;;8.10;99.90;;;;;;4952531;29;20212;-74
2023/10/25 05:17:34;;;;;;;23.15;13.13;;;8.10;99.90;;;;;;4946164;28;20228;-73
2023/10/25 05:20:01;;;;;;;26.67;12.40;;;8.10;99.90;;;;;;4949405;29;20553;-72
2023/10/25 05:22:30;;;;;;;24.63;12.05;;;8.10;99.90;;;;;;4949757;29;20240;-72
2023/10/25 05:24:58;;;;;;;24.38;12.95;;;8.00;99.90;;;;;;4947528;29;20209;-73
2023/10/25 05:27:26;;;;;;;24.20;12.63;;;8.00;99.90;;;;;;4950351;29;20217;-73
2023/10/25 05:29:54;;;;;;;19.77;11.20;;;8.00;99.90;;;;;;4951491;28;20701;-73
2023/10/25 05:32:21;;;;;;;20.05;10.68;;;8.00;99.90;;;;;;4948261;28;20221;-73
2023/10/25 05:34:49;;;;;;;18.05;10.35;;;7.90;99.90;;;;;;4951260;29;20205;-72
2023/10/25 05:37:16;;;;;;;23.52;11.10;;;7.90;99.90;;;;;;4948207;28;20205;-73
2023/10/25 05:39:43;;;;;;;23.58;11.18;;;7.90;99.90;;;;;;4953125;28;20220;-73
2023/10/25 05:42:17;;;;;;;21.35;9.80;;;7.80;99.90;;;;;;4946918;28;20237;-73
2023/10/25 05:44:45;;;;;;;23.45;11.40;;;7.80;99.90;;;;;;4952925;29;20670;-74
2023/10/25 05:47:12;;;;;;;20.55;11.82;;;7.80;99.90;;;;;;4948974;28;20220;-73
2023/10/25 05:49:39;;;;;;;22.27;11.20;;;7.70;99.90;;;;;;4952042;28;20201;-73
2023/10/25 05:52:09;;;;;;;20.75;10.10;;;7.70;99.90;;;;;;4946536;28;20678;-72
2023/10/25 05:54:36;;;;;;;18.52;10.60;;;7.70;99.90;;;;;;4952029;29;20205;-73
2023/10/25 05:57:05;;;;;;;20.73;11.63;;;7.70;99.90;;;;;;4945765;29;20221;-73
2023/10/25 05:59:32;;;;;;;21.20;11.40;;;7.70;99.90;;;;;;4945149;28;20232;-72
2023/10/25 06:02:08;;;;;;;16.67;9.55;;;7.70;99.90;;;;;;4939704;28;20237;-72
2023/10/25 06:04:37;;;;;;;18.75;9.40;;;7.60;99.90;;;;;;4943833;29;20208;-73
2023/10/25 06:07:05;;;;;;;16.27;9.95;;;7.70;99.90;;;;;;4947001;29;20220;-73
2023/10/25 06:09:32;;;;;;;17.65;9.75;;;7.70;99.90;;;;;;4951298;28;20596;-73
2023/10/25 06:11:59;;;;;;;23.50;10.57;;;7.60;99.90;;;;;;4951677;28;20224;-72
2023/10/25 06:14:28;;;;;;;23.02;9.93;;;7.60;99.90;;;;;;4948016;28;20209;-72
2023/10/25 06:16:54;;;;;;;18.10;8.80;;;7.60;99.90;;;;;;4951612;28;20209;-73
2023/10/25 06:19:23;;;;;;;14.93;10.45;;;7.60;99.90;;;;;;4950232;28;20205;-72
2023/10/25 06:21:50;;;;;;;22.67;11.27;;;7.60;99.90;;;;;;4946563;29;20235;-72
2023/10/25 06:24:16;;;;;;;23.65;9.20;;;7.50;99.90;;;;;;4949080;29;20692;-72
2023/10/25 06:26:43;;;;;;;13.45;9.20;;;7.60;99.90;;;;;;4950876;29;20210;-72
2023/10/25 06:29:10;;;;;;;15.10;9.75;;;7.60;99.90;;;;;;4945240;28;20213;-72
2023/10/25 06:31:37;;;;;;;21.30;10.75;;;7.60;99.90;;;;;;4944233;28;20222;-72
2023/10/25 06:34:03;;;;;;;18.00;9.88;;;7.60;99.90;;;;;;4949018;29;20209;-73
2023/10/25 06:36:34;;;;;;;17.85;8.70;;;7.60;99.90;;;;;;4949808;29;20228;-72
2023/10/25 06:39:04;;;;;;;20.42;9.25;;;7.60;99.90;;;;;;4950804;29;20216;-72
2023/10/25 06:41:32;;;;;;;22.08;10.38;;;7.60;99.90;;;;;;4949535;29;20332;-73
2023/10/25 06:44:00;;;;;;;22.98;9.50;;;7.60;99.90;;;;;;4949542;28;20209;-72
2023/10/25 06:46:27;;;;;;;19.85;9.02;;;7.60;99.90;;;;;;4946156;29;20217;-72
2023/10/25 06:48:56;;;;;;;15.20;10.25;;;7.60;99.90;;;;;;4944485;29;20245;-73
2023/10/25 06:51:23;;;;;;;16.25;10.40;;;7.60;99.90;;;;;;4946730;29;20291;-73
2023/10/25 06:53:52;;;;;;;14.93;9.68;;;7.60;99.90;;;;;;4951072;28;20205;-72
2023/10/25 06:56:19;;;;;;;22.50;10.45;;;7.70;99.90;;;;;;4946098;29;20241;-72
2023/10/25 06:58:47;;;;;;;18.38;10.02;;;7.70;99.90;;;;;;4939702;29;20205;-72
2023/10/25 07:01:17;;;;;;;14.20;8.85;;;7.70;99.90;;;;;;4950581;28;20260;-72
2023/10/25 07:03:47;;;;;;;16.55;10.15;;;7.70;99.90;;;;;;4941474;28;20228;-72
2023/10/25 07:06:16;;;;;;;17.92;9.10;;;7.70;99.90;;;;;;4944560;29;20213;-72
2023/10/25 07:08:43;;;;;;;16.67;8.80;;;7.70;99.90;;;;;;4951217;28;20205;-72
2023/10/25 07:11:12;;;;;;;25.75;12.20;;;7.80;99.90;;;;;;4950927;28;20603;-72
2023/10/25 07:13:38;;;;;;;26.38;12.05;;;7.80;99.90;;;;;;4949333;29;20217;-73
2023/10/25 07:16:05;;;;;;;23.83;11.43;;;7.80;99.90;;;;;;4950509;28;20209;-72
2023/10/25 07:18:32;;;;;;;21.27;10.93;;;7.80;99.90;;;;;;4951198;28;20213;-72
2023/10/25 07:20:59;;;;;;;21.85;11.30;;;7.90;99.90;;;;;;4949450;29;20229;-73
2023/10/25 07:23:25;;;;;;;25.67;11.02;;;7.90;99.90;;;;;;4951579;28;20208;-72
2023/10/25 07:25:53;;;;;;;19.85;10.85;;;7.90;99.90;;;;;;4951639;29;20213;-72
2023/10/25 07:28:22;;;;;;;18.88;9.00;;;7.90;99.90;;;;;;4949683;29;20307;-72
2023/10/25 07:30:50;;;;;;;25.50;10.43;;;8.00;99.90;;;;;;4948097;28;20221;-73
2023/10/25 07:33:18;;;;;;;17.55;10.98;;;8.00;99.90;;;;;;4942791;28;20299;-72
2023/10/25 07:35:45;;;;;;;17.30;9.10;;;8.10;99.90;;;;;;4943598;28;20630;-72
2023/10/25 07:38:11;;;;;;;22.05;11.80;;;8.10;99.90;;;;;;4950745;29;20241;-72
2023/10/25 07:40:40;;;;;;;20.00;10.57;;;8.10;99.90;;;;;;4939077;28;21852;-72
2023/10/25 07:43:07;;;;;;;23.58;10.63;;;8.20;99.90;;;;;;4946986;29;20209;-72
2023/10/25 07:45:35;;;;;;;20.42;11.65;;;8.20;99.90;;;;;;4950443;28;20205;-73
2023/10/25 07:48:02;;;;;;;24.90;11.80;;;8.20;99.90;;;;;;4950276;29;20209;-72
2023/10/25 07:50:28;;;;;;;24.10;12.63;;;8.40;99.90;;;;;;4939799;28;20296;-72
2023/10/25 07:52:55;;;;;;;24.40;11.20;;;8.40;99.90;;;;;;4943985;29;20549;-73
2023/10/25 07:55:22;;;;;;;20.60;11.07;;;8.50;99.90;;;;;;4943869;29;20220;-72
2023/10/25 07:57:49;;;;;;;28.73;12.40;;;8.60;99.90;;;;;;4948883;28;20620;-73
2023/10/25 08:00:16;;;;;;;26.55;12.90;;;8.60;99.90;;;;;;4936961;28;20217;-72
2023/10/25 08:02:44;;;;;;;26.95;11.48;;;8.60;99.90;;;;;;4944082;29;20229;-72
2023/10/25 08:05:11;;;;;;;25.30;11.98;;;8.60;99.90;;;;;;4941979;29;20307;-72
2023/10/25 08:07:38;;;;;;;22.70;11.70;;;8.60;99.90;;;;;;4945928;29;20577;-73
2023/10/25 08:10:06;;;;;;;26.42;12.07;;;8.70;99.90;;;;;;4941117;28;20214;-73
2023/10/25 08:12:35;;;;;;;19.25;10.30;;;8.70;99.90;;;;;;4940586;29;20221;-74
2023/10/25 08:15:02;;;;;;;22.30;11.90;;;8.70;99.90;;;;;;4951943;28;20264;-74
2023/10/25 08:17:29;;;;;;;23.33;11.63;;;8.70;99.90;;;;;;4952098;28;20252;-72
2023/10/25 08:19:57;;;;;;;20.67;10.30;;;8.80;99.90;;;;;;4955979;29;20216;-73
2023/10/25 08:22:24;;;;;;;20.05;11.00;;;8.90;99.90;;;;;;4955921;28;20671;-72
2023/10/25 08:24:51;;;;;;;24.40;12.07;;;9.00;99.90;;;;;;4953308;29;20216;-73
2023/10/25 08:27:18;;;;;;;25.65;12.25;;;9.00;99.90;;;;;;4952925;29;20213;-73
2023/10/25 08:29:45;;;;;;;21.10;9.85;;;9.10;99.90;;;;;;4947533;28;20689;-72
2023/10/25 08:32:12;;;;;;;22.13;12.02;;;9.10;99.90;;;;;;4945772;29;20236;-72
2023/10/25 08:34:43;;;;;;;16.20;10.30;;;9.10;99.90;;;;;;4955415;29;20292;-73
2023/10/25 08:37:11;;;;;;;18.02;10.55;;;9.20;99.90;;;;;;4956536;29;20212;-73
2023/10/25 08:39:38;;;;;;;17.83;10.85;;;9.30;99.90;;;;;;4949341;29;20669;-73
2023/10/25 08:42:07;;;;;;;16.60;11.02;;;9.30;99.90;;;;;;4955208;29;20238;-73
2023/10/25 08:44:39;;;;;;;17.60;10.55;;;9.40;99.90;;;;;;4956972;28;20213;-73
2023/10/25 08:47:06;;;;;;;24.95;9.77;;;9.50;99.90;;;;;;4947857;29;20317;-73
2023/10/25 08:49:33;;;;;;;20.40;9.77;;;9.50;99.90;;;;;;4952613;28;20236;-74
2023/10/25 08:52:00;;;;;;;20.92;10.13;;;9.60;99.90;;;;;;4943000;29;20237;-72
2023/10/25 08:54:30;;;;;;;17.27;10.52;;;9.60;99.90;;;;;;4946243;28;20205;-72
2023/10/25 08:56:56;;;;;;;21.02;12.13;;;9.70;99.90;;;;;;4944176;29;20217;-73
2023/10/25 08:59:23;;;;;;;17.10;9.52;;;9.70;99.90;;;;;;4940016;28;20218;-73
2023/10/25 09:01:50;;;;;;;17.65;9.77;;;9.80;99.90;;;;;;4942643;29;20229;-73
2023/10/25 09:04:17;;;;;;;16.63;8.95;;;9.90;99.90;;;;;;4942468;29;20211;-73
2023/10/25 09:06:43;;;;;;;16.50;9.70;;;10.00;99.90;;;;;;4943225;29;20849;-73
2023/10/25 09:09:10;;;;;;;22.77;11.32;;;10.00;99.90;;;;;;4939833;28;20205;-72
2023/10/25 09:11:43;;;;;;;16.85;8.75;;;10.00;99.90;;;;;;4950018;28;20229;-72
2023/10/25 09:14:10;;;;;;;15.25;9.00;;;10.10;99.90;;;;;;4939110;28;20207;-73
2023/10/25 09:16:40;;;;;;;22.92;10.55;;;10.20;99.90;;;;;;4945900;29;20285;-73
2023/10/25 09:19:07;;;;;;;15.15;8.32;;;10.30;99.90;;;;;;4942172;29;20269;-73
2023/10/25 09:21:34;;;;;;;15.95;7.80;;;10.30;99.90;;;;;;4942852;29;20266;-73
2023/10/25 09:24:02;;;;;;;18.23;8.23;;;10.40;99.90;;;;;;4935662;29;20209;-73
2023/10/25 09:26:35;;;;;;;11.93;6.90;;;10.50;99.90;;;;;;4951917;29;20216;-73
2023/10/25 09:29:04;;;;;;;12.55;7.38;;;10.50;99.90;;;;;;4955058;29;20209;-73
2023/10/25 09:31:32;;;;;;;12.80;7.10;;;10.60;99.90;;;;;;4945324;28;20237;-73
2023/10/25 09:34:00;;;;;;;16.50;9.82;;;10.70;99.90;;;;;;4935050;29;20472;-74
2023/10/25 09:36:28;;;;;;;10.20;7.18;;;10.70;99.90;;;;;;4949156;29;20296;-73
2023/10/25 09:38:56;;;;;;;9.32;6.82;;;10.80;99.90;;;;;;4943909;29;20221;-72
2023/10/25 09:41:26;;;;;;;13.15;7.03;;;10.90;99.90;;;;;;4949040;29;20733;-74
2023/10/25 09:43:56;;;;;;;13.38;6.97;;;11.00;99.90;;;;;;4941648;29;20615;-73
2023/10/25 09:46:29;;;;;;;13.93;7.35;;;11.10;99.90;;;;;;4936869;29;20344;-73
2023/10/25 09:49:00;;;;;;;8.43;6.13;;;11.10;99.90;;;;;;4941672;29;20222;-73
2023/10/25 09:51:43;;;;;;;11.80;6.63;;;11.10;99.90;;;;;;4939912;29;20249;-73
2023/10/25 09:54:12;;;;;;;12.07;6.70;;;11.20;99.90;;;;;;4935967;29;20226;-73
2023/10/25 09:56:39;;;;;;;9.90;6.90;;;11.30;99.90;;;;;;4946466;28;20262;-73
2023/10/25 09:59:07;;;;;;;9.15;6.50;;;11.40;99.90;;;;;;4948973;28;20480;-73
2023/10/25 10:01:36;;;;;;;7.07;6.37;;;11.50;99.90;;;;;;4936652;29;20243;-73
2023/10/25 10:04:13;;;;;;;13.43;7.10;;;11.60;99.90;;;;;;4939396;29;20494;-72
2023/10/25 10:06:47;;;;;;;10.37;6.73;;;11.70;99.90;;;;;;4940014;29;21177;-72
2023/10/25 10:09:32;;;;;;;9.77;6.87;;;11.80;99.90;;;;;;4941673;29;20473;-74
2023/10/25 10:12:04;;;;;;;9.23;6.30;;;12.00;99.90;;;;;;4939420;29;20495;-73
2023/10/25 10:14:33;;;;;;;10.40;6.33;;;12.10;99.90;;;;;;4940113;29;20623;-73
2023/10/25 10:17:07;;;;;;;7.60;5.20;;;12.10;99.90;;;;;;4952666;28;20488;-73
2023/10/25 10:19:37;;;;;;;8.10;6.00;;;12.20;99.90;;;;;;4937703;28;20473;-73
2023/10/25 10:22:05;;;;;;;10.13;4.70;;;12.30;99.90;;;;;;4942318;29;21026;-73
2023/10/25 10:24:40;;;;;;;8.70;5.23;;;12.40;99.90;;;;;;4946318;28;20473;-74
2023/10/25 10:27:07;;;;;;;7.27;4.90;;;12.40;99.90;;;;;;4937414;28;20469;-73
2023/10/25 10:29:41;;;;;;;11.87;5.17;;;12.40;99.90;;;;;;4941380;29;20469;-71
2023/10/25 10:32:11;;;;;;;6.13;5.00;;;12.40;99.90;;;;;;4945761;28;21025;-73
2023/10/25 10:34:40;;;;;;;5.17;4.80;;;12.50;99.90;;;;;;4956254;28;20829;-74
2023/10/25 10:37:08;;;;;;;7.37;4.53;;;12.60;99.90;;;;;;4952991;29;20467;-74
2023/10/25 10:39:36;;;;;;;6.77;5.10;;;12.70;99.90;;;;;;4939248;28;20890;-73
2023/10/25 10:42:04;;;;;;;4.30;3.90;;;12.80;99.90;;;;;;4952722;28;20498;-74
2023/10/25 10:44:34;;;;;;;8.57;4.17;;;12.70;99.90;;;;;;4954377;28;20551;-74
2023/10/25 10:47:01;;;;;;;5.30;3.83;;;12.80;99.90;;;;;;4943621;28;20825;-73
2023/10/25 10:49:31;;;;;;;7.20;4.23;;;12.80;99.90;;;;;;4946320;28;20845;-74
2023/10/25 10:51:58;;;;;;;9.93;5.10;;;12.80;99.90;;;;;;4945434;28;20488;-73
2023/10/25 10:54:25;;;;;;;3.27;3.00;;;12.90;99.90;;;;;;4946528;28;20479;-74
2023/10/25 10:56:52;;;;;;;4.67;2.93;;;13.00;99.90;;;;;;4947148;28;20480;-73
2023/10/25 10:59:19;;;;;;;3.87;3.60;;;13.00;99.90;;;;;;4948920;29;20491;-73
2023/10/25 11:01:46;;;;;;;3.77;3.50;;;13.00;99.90;;;;;;4942431;28;20501;-73
2023/10/25 11:04:12;;;;;;;6.10;2.73;;;13.10;99.90;;;;;;4955620;28;20468;-73
2023/10/25 11:06:42;;;;;;;3.20;3.00;;;13.10;99.90;;;;;;4939274;28;20480;-74
2023/10/25 11:09:09;;;;;;;6.30;3.40;;;13.10;99.90;;;;;;4942059;28;20469;-73
2023/10/25 11:11:36;;;;;;;7.37;3.43;;;13.10;99.90;;;;;;4942149;29;20993;-74
2023/10/25 11:14:03;;;;;;;3.53;2.90;;;13.20;99.90;;;;;;4946840;28;20849;-74
2023/10/25 11:16:30;;;;;;;3.20;3.00;;;13.20;99.90;;;;;;4960863;28;20681;-74
2023/10/25 11:19:07;;;;;;;5.87;3.43;;;13.20;99.90;;;;;;4950155;28;20469;-73
2023/10/25 11:21:33;;;;;;;4.50;3.43;;;13.20;99.90;;;;;;4943527;28;20552;-73
2023/10/25 11:24:06;;;;;;;3.83;3.53;;;13.20;99.90;;;;;;4945068;28;20492;-74
2023/10/25 11:26:37;;;;;;;6.80;3.43;;;13.20;99.90;;;;;;4952908;29;20464;-74
2023/10/25 11:29:05;;;;;;;3.53;2.93;;;13.30;99.90;;;;;;4940621;29;20461;-74
2023/10/25 11:31:33;;;;;;;2.33;2.33;;;13.30;99.90;;;;;;4937506;28;20517;-74
2023/10/25 11:34:00;;;;;;;2.20;2.13;;;13.30;99.90;;;;;;4949311;28;20812;-73
2023/10/25 11:36:32;;;;;;;3.20;3.10;;;13.40;99.90;;;;;;4939421;28;20479;-73
2023/10/25 11:39:18;;;;;;;9.50;3.70;;;13.40;99.90;;;;;;4939008;29;20523;-73
2023/10/25 11:41:45;;;;;;;3.97;3.40;;;13.40;99.90;;;;;;4945112;28;20485;-72
2023/10/25 11:44:12;;;;;;;2.87;2.70;;;13.40;99.90;;;;;;4943664;28;20496;-73
2023/10/25 11:46:41;;;;;;;4.07;3.77;;;13.40;99.90;;;;;;4953292;28;20464;-72
2023/10/25 11:49:09;;;;;;;5.07;3.60;;;13.50;99.90;;;;;;4937558;29;20488;-74
2023/10/25 11:51:36;;;;;;;4.70;3.63;;;13.50;99.90;;;;;;4948556;28;20484;-73
2023/10/25 11:54:04;;;;;;;2.90;2.90;;;13.60;99.90;;;;;;4960555;28;20886;-73
2023/10/25 11:56:33;;;;;;;3.17;2.90;;;13.60;99.90;;;;;;4959219;28;20480;-73
2023/10/25 11:58:59;;;;;;;3.00;2.63;;;13.70;99.90;;;;;;4945280;29;20469;-72
2023/10/25 12:01:26;;;;;;;2.10;2.00;;;13.60;99.90;;;;;;4951951;28;21014;-73
2023/10/25 12:03:53;;;;;;;2.73;2.13;;;13.70;99.90;;;;;;4947626;28;20493;-73
2023/10/25 12:06:20;;;;;;;2.00;1.90;;;13.80;99.90;;;;;;4948722;29;20464;-74
2023/10/25 12:08:47;;;;;;;4.93;2.50;;;13.80;99.90;;;;;;4953684;28;20477;-73
2023/10/25 12:11:13;;;;;;;2.07;1.43;;;13.80;99.90;;;;;;4953082;28;20516;-73
2023/10/25 12:13:42;;;;;;;1.87;1.77;;;13.80;99.90;;;;;;4952676;28;20467;-73
2023/10/25 12:16:10;;;;;;;1.30;1.30;;;13.70;99.90;;;;;;4951327;28;20473;-73
2023/10/25 12:18:38;;;;;;;3.13;1.60;;;13.60;99.90;;;;;;4950807;29;20468;-73
2023/10/25 12:21:06;;;;;;;3.43;2.03;;;13.60;99.90;;;;;;4942963;29;20500;-73
2023/10/25 12:23:33;;;;;;;3.40;1.63;;;13.50;99.90;;;;;;4940202;29;20860;-73
2023/10/25 12:26:00;;;;;;;3.00;1.90;;;13.50;99.90;;;;;;4952940;29;20472;-73
2023/10/25 12:28:27;;;;;;;1.80;1.70;;;13.50;99.90;;;;;;4956416;28;20461;-73
2023/10/25 12:30:55;;;;;;;7.67;1.73;;;13.50;99.90;;;;;;4960541;28;20483;-74
2023/10/25 12:33:22;;;;;;;1.30;1.30;;;13.60;99.90;;;;;;4975450;28;20464;-73
2023/10/25 12:35:49;;;;;;;1.00;1.00;;;13.60;99.90;;;;;;4942198;29;20476;-73
2023/10/25 12:38:16;;;;;;;2.67;1.07;;;13.60;99.90;;;;;;4952196;29;20478;-73
2023/10/25 12:40:43;;;;;;;4.90;1.43;;;13.70;99.90;;;;;;4955022;28;20496;-73
2023/10/25 12:43:09;;;;;;;0.97;0.97;;;13.70;99.90;;;;;;4955679;28;20493;-73
2023/10/25 12:45:36;;;;;;;1.10;1.00;;;13.80;99.90;;;;;;4958551;28;20460;-74
2023/10/25 12:48:04;;;;;;;1.70;1.60;;;13.80;99.90;;;;;;4960586;28;20871;-72
2023/10/25 12:50:31;;;;;;;2.40;1.10;;;13.90;99.90;;;;;;4941855;28;20485;-73
2023/10/25 12:52:58;;;;;;;1.10;0.90;;;13.80;99.90;;;;;;4945558;28;20470;-74
2023/10/25 12:55:25;;;;;;;1.20;1.20;;;13.90;99.90;;;;;;4953799;28;20465;-74
2023/10/25 12:57:52;;;;;;;5.10;1.20;;;13.90;99.90;;;;;;4939332;29;20519;-73
2023/10/25 13:00:19;;;;;;;1.93;1.10;;;14.00;99.90;;;;;;4939332;28;20839;-74
2023/10/25 13:02:45;;;;;;;1.10;1.10;;;14.00;99.90;;;;;;4942314;29;22220;-73
2023/10/25 13:05:13;;;;;;;5.80;1.83;;;14.00;99.90;;;;;;4948209;29;20481;-73
2023/10/25 13:07:42;;;;;;;4.70;3.30;;;14.10;99.90;;;;;;4961083;28;21084;-74
2023/10/25 13:10:10;;;;;;;1.17;1.17;;;14.10;99.90;;;;;;4951844;28;20469;-73
2023/10/25 13:12:37;;;;;;;2.10;2.00;;;14.00;99.90;;;;;;4952895;28;20499;-73
2023/10/25 13:15:05;;;;;;;1.87;1.77;;;14.10;99.90;;;;;;4953571;28;20481;-73
2023/10/25 13:17:32;;;;;;;2.27;2.17;;;14.10;99.90;;;;;;4940170;28;20474;-74
2023/10/25 13:19:59;;;;;;;2.63;2.40;;;14.00;99.90;;;;;;4947838;28;20575;-73
2023/10/25 13:22:27;;;;;;;2.10;2.10;;;14.10;99.90;;;;;;4951654;28;20484;-74
2023/10/25 13:24:54;;;;;;;2.97;1.50;;;14.10;99.90;;;;;;4957943;28;20489;-73
2023/10/25 13:27:21;;;;;;;2.10;2.10;;;14.10;99.90;;;;;;4963025;28;20465;-73
2023/10/25 13:29:48;;;;;;;2.47;2.27;;;14.10;99.90;;;;;;4949354;28;20469;-73
2023/10/25 13:32:14;;;;;;;1.90;1.80;;;14.10;99.90;;;;;;4966263;28;20483;-73
2023/10/25 13:34:42;;;;;;;3.00;2.70;;;14.20;99.90;;;;;;4961211;28;20473;-74
2023/10/25 13:37:09;;;;;;;2.17;2.17;;;14.20;99.90;;;;;;4953139;28;20468;-74
2023/10/25 13:39:37;;;;;;;3.17;2.83;;;14.10;99.90;;;;;;4962677;28;20502;-72
2023/10/25 13:42:04;;;;;;;3.13;3.03;;;13.90;99.90;;;;;;4951341;29;20491;-74
2023/10/25 13:44:31;;;;;;;3.23;2.63;;;14.00;99.90;;;;;;4952794;28;20494;-73
2023/10/25 13:46:58;;;;;;;3.20;2.33;;;14.00;99.90;;;;;;4949266;28;21006;-73
2023/10/25 13:49:24;;;;;;;3.33;2.80;;;13.90;99.90;;;;;;4946807;28;20469;-73
2023/10/25 13:51:51;;;;;;;2.77;2.57;;;13.90;99.90;;;;;;4945185;29;21293;-73
2023/10/25 13:54:18;;;;;;;2.63;2.43;;;13.60;99.90;;;;;;4946227;28;20465;-73
2023/10/25 13:56:46;;;;;;;5.30;2.50;;;13.80;99.90;;;;;;4955301;29;20484;-74
2023/10/25 13:59:13;;;;;;;2.77;2.67;;;13.70;99.90;;;;;;4949810;28;20477;-74
2023/10/25 14:01:41;;;;;;;3.20;3.10;;;13.60;99.90;;;;;;4947518;28;20524;-74
2023/10/25 14:04:09;;;;;;;2.67;2.57;;;13.60;99.90;;;;;;4957431;28;20503;-74
2023/10/25 14:06:36;;;;;;;2.57;2.47;;;13.60;99.90;;;;;;4949538;28;20551;-74
2023/10/25 14:09:03;;;;;;;2.77;2.67;;;13.50;99.90;;;;;;4946266;28;20464;-74
2023/10/25 14:11:30;;;;;;;4.80;2.97;;;13.50;99.90;;;;;;4951852;28;20496;-74
2023/10/25 14:13:58;;;;;;;3.53;2.50;;;13.40;99.90;;;;;;4954366;28;20469;-73
2023/10/25 14:16:26;;;;;;;3.03;2.90;;;13.40;99.90;;;;;;4946482;29;20483;-74
2023/10/25 14:18:53;;;;;;;4.73;3.33;;;13.20;99.90;;;;;;4951046;28;20465;-73
2023/10/25 14:21:23;;;;;;;4.07;3.20;;;13.30;99.90;;;;;;4940461;29;20850;-74
2023/10/25 14:23:51;;;;;;;2.80;2.70;;;13.30;99.90;;;;;;4953227;28;20580;-73
2023/10/25 14:26:18;;;;;;;7.33;2.97;;;13.20;99.90;;;;;;4944801;28;20516;-73
2023/10/25 14:28:45;;;;;;;3.07;2.97;;;13.20;99.90;;;;;;4944581;29;20477;-73
2023/10/25 14:31:17;;;;;;;3.10;3.00;;;13.10;99.90;;;;;;4936616;28;21027;-74
2023/10/25 14:33:43;;;;;;;3.60;3.40;;;13.20;99.90;;;;;;4955697;28;20464;-73
2023/10/25 14:36:13;;;;;;;6.90;5.30;;;13.10;99.90;;;;;;4960065;28;20795;-73
2023/10/25 14:38:40;;;;;;;5.00;4.60;;;13.00;99.90;;;;;;4961351;28;20527;-74
2023/10/25 14:41:08;;;;;;;4.40;4.20;;;13.00;99.90;;;;;;4958114;28;20516;-73
2023/10/25 14:43:34;;;;;;;3.80;3.60;;;13.00;99.90;;;;;;4952340;28;20495;-74
2023/10/25 14:46:01;;;;;;;3.40;3.20;;;12.90;99.90;;;;;;4945309;28;21110;-74
2023/10/25 14:48:30;;;;;;;4.30;4.00;;;12.90;99.90;;;;;;4941692;28;20476;-73
2023/10/25 14:50:57;;;;;;;5.07;4.63;;;13.00;99.90;;;;;;4959826;28;20479;-74
2023/10/25 14:53:24;;;;;;;5.60;5.07;;;12.90;99.90;;;;;;4962117;28;20519;-74
2023/10/25 14:55:51;;;;;;;5.13;4.83;;;12.90;99.90;;;;;;4947531;28;20465;-74
2023/10/25 14:58:18;;;;;;;6.47;4.90;;;12.90;99.90;;;;;;4963459;28;20471;-74
2023/10/25 15:00:45;;;;;;;5.00;4.73;;;12.90;99.90;;;;;;4943222;28;20575;-74
2023/10/25 15:03:11;;;;;;;5.30;5.00;;;12.80;99.90;;;;;;4946908;29;20458;-74
2023/10/25 15:05:41;;;;;;;4.90;4.70;;;12.80;99.90;;;;;;4944589;28;20813;-74
2023/10/25 15:08:08;;;;;;;9.07;6.00;;;12.90;99.90;;;;;;4957899;28;20472;-74
2023/10/25 15:10:35;;;;;;;11.03;5.27;;;12.80;99.90;;;;;;4966025;28;20570;-74
2023/10/25 15:13:02;;;;;;;5.10;4.77;;;12.80;99.90;;;;;;4958254;28;20561;-73
2023/10/25 15:15:29;;;;;;;5.53;5.03;;;12.70;99.90;;;;;;4949403;28;20938;-74
2023/10/25 15:17:56;;;;;;;8.47;5.70;;;12.70;99.90;;;;;;4958637;28;20850;-74
2023/10/25 15:20:22;;;;;;;5.50;5.10;;;12.70;99.90;;;;;;4968710;28;20456;-74
2023/10/25 15:22:51;;;;;;;5.47;5.00;;;12.60;99.90;;;;;;4960517;28;20575;-74
2023/10/25 15:25:22;;;;;;;5.37;4.83;;;12.60;99.90;;;;;;4937641;29;20592;-74
2023/10/25 15:27:49;;;;;;;5.17;4.67;;;12.50;99.90;;;;;;4954701;29;20507;-74
2023/10/25 15:30:16;;;;;;;4.97;4.57;;;12.50;99.90;;;;;;4959604;28;20460;-74
2023/10/25 15:32:43;;;;;;;4.87;4.57;;;12.50;99.90;;;;;;4957067;28;20468;-74
2023/10/25 15:35:11;;;;;;;5.33;5.03;;;12.40;99.90;;;;;;4950486;29;20468;-74
2023/10/25 15:37:37;;;;;;;6.13;5.73;;;12.40;99.90;;;;;;4940004;28;20675;-74
2023/10/25 15:40:07;;;;;;;5.27;4.77;;;12.30;99.90;;;;;;4959914;28;20465;-74
2023/10/25 15:42:35;;;;;;;5.60;5.17;;;12.30;99.90;;;;;;4975971;28;20819;-74
2023/10/25 15:45:02;;;;;;;5.33;4.93;;;12.30;99.90;;;;;;4957189;28;20534;-74
2023/10/25 15:47:29;;;;;;;5.00;4.50;;;12.30;99.90;;;;;;4952410;28;20466;-73
2023/10/25 15:49:56;;;;;;;5.77;5.33;;;12.20;99.90;;;;;;4971153;28;20467;-74
2023/10/25 15:52:23;;;;;;;10.20;6.23;;;12.20;99.90;;;;;;4951321;28;21021;-74
2023/10/25 15:54:50;;;;;;;6.07;5.50;;;12.10;99.90;;;;;;4960857;28;20460;-74
2023/10/25 15:57:18;;;;;;;7.13;5.73;;;12.10;99.90;;;;;;4968677;28;20475;-74
2023/10/25 15:59:44;;;;;;;5.37;4.97;;;12.10;99.90;;;;;;4956499;29;20990;-74
2023/10/25 16:02:11;;;;;;;6.40;5.07;;;12.00;99.90;;;;;;4960105;28;20503;-74
2023/10/25 16:04:38;;;;;;;6.23;5.73;;;12.00;99.90;;;;;;4954828;28;20566;-74
2023/10/25 16:07:05;;;;;;;5.73;5.23;;;12.00;99.90;;;;;;4970076;28;20463;-74
2023/10/25 16:09:31;;;;;;;5.50;5.30;;;12.00;99.90;;;;;;4957988;28;20551;-74
2023/10/25 16:11:58;;;;;;;7.30;5.97;;;11.90;99.90;;;;;;4954104;28;20502;-74
2023/10/25 16:14:26;;;;;;;8.80;5.57;;;11.90;99.90;;;;;;4944537;29;20846;-74
2023/10/25 16:16:55;;;;;;;6.47;5.97;;;11.90;99.90;;;;;;5002218;23;20497;-71
2023/10/25 16:19:23;;;;;;;6.23;5.80;;;11.80;99.90;;;;;;4980973;28;20481;-71
2023/10/25 16:21:49;;;;;;;6.03;5.60;;;11.80;99.90;;;;;;4976925;28;20470;-70
2023/10/25 16:24:17;;;;;;;6.30;5.67;;;11.80;99.90;;;;;;4977784;28;20502;-72
2023/10/25 16:26:44;;;;;;;6.40;6.00;;;11.80;99.90;;;;;;4968061;28;21119;-72
2023/10/25 16:29:11;;;;;;;7.30;6.70;;;11.70;99.90;;;;;;4965262;28;20498;-72
2023/10/25 16:31:39;;;;;;;7.83;7.13;;;11.70;99.90;;;;;;4962152;28;20476;-72
2023/10/25 16:34:06;;;;;;;7.83;7.17;;;11.70;99.90;;;;;;4964285;28;20470;-72
2023/10/25 16:36:32;;;;;;;7.97;7.37;;;11.70;99.90;;;;;;4963236;28;20497;-71
2023/10/25 16:38:59;;;;;;;7.73;7.10;;;11.70;99.90;;;;;;4960110;28;20476;-71
2023/10/25 16:41:26;;;;;;;6.87;6.27;;;11.60;99.90;;;;;;4955416;28;20483;-71
2023/10/25 16:43:53;;;;;;;6.90;6.30;;;11.60;99.90;;;;;;4964415;28;20497;-71
2023/10/25 16:46:20;;;;;;;7.17;6.50;;;11.50;99.90;;;;;;4961687;28;20493;-70